首页
METAR-TAF:

METAR-TAF

机场 :

Puerto Cabezas, 尼加拉瓜

纬度: 14-03N, 经度: 083-22W, 海拔: 20米

当前天气观测

该预报发布于12小时和50分钟前的23:00 UTC
风速6节,风向东转东北
温度 28°C
湿度 84%
气压 1010 hPa
能見度: 7000
散云层高于1600英尺
多云层高于30000英尺

METAR: MNPC 102300Z 07006KT 7000 SCT016 BKN300 28/25 Q1010

时间: 05:50 (11:50 UTC)

预报

该预报发布于15小时和35分钟前的20:15 UTC
预报有效从11日的 00点(UTC)到 11日的 24点(UTC)
风速8节,风向东转东北
能見度: 6000
散云层高于1600英尺, 塔状积云.
附近有, 雨
从 11日的 0200点(UTC)
风速10节,风向东转东北
能見度: 8000
成为
从 11日的 12点(UTC)到 11日的 18点(UTC)
风速12节,风向东转东北,有时为16节阵风
散云层高于2000英尺

TAF: MNPC 102015Z 1100/1124 07008KT 6000 VCRA SCT016TCU FM110200 06010KT 8000 BECMG 1112/1118 07012G16KT SCT020

超过4000个机场的气象观测和天气预报(METAR&TAF报告)。

可查询的气象台以黄色和红色小点在地图上表示。

将鼠标移到小点上方,可查看气象台名称。

然后点击查看天气观测和预报。

如需切换地图:点击带黑十字的绿色按钮放大地图;点击带横线的绿色按钮缩小地图;或者点击绿色箭头查看邻近地区的地图。


METAR-TAF: